Time;durP1;ratioP1;P1;durP2;ratioP2;P2;SDS_P1;SDS_P2;PMS_P1;PMS_P2;Temp;Humidity;BMP_temperature;BMP_pressure;BME280_temperature;BME280_humidity;BME280_pressure;Samples;Min_cycle;Max_cycle;Signal;HPM_P1;HPM_P2
2024/01/13 00:00:37;;;;;;;83.15;30.98;;;-4.80;99.90;;;;;;5027842;28;20046;-64
2024/01/13 00:03:04;;;;;;;68.57;27.60;;;-4.80;99.90;;;;;;5027581;28;20113;-65
2024/01/13 00:05:31;;;;;;;71.25;27.48;;;-4.80;99.90;;;;;;5012835;28;20426;-62
2024/01/13 00:08:02;;;;;;;69.53;25.42;;;-4.90;99.90;;;;;;5012971;28;20050;-62
2024/01/13 00:10:34;;;;;;;69.10;27.35;;;-4.90;99.90;;;;;;5016734;28;20501;-62
2024/01/13 00:13:08;;;;;;;71.50;29.25;;;-4.90;99.90;;;;;;5018391;28;20045;-62
2024/01/13 00:15:36;;;;;;;73.22;28.42;;;-4.90;99.90;;;;;;5021887;28;20046;-62
2024/01/13 00:18:03;;;;;;;67.95;28.42;;;-4.90;99.90;;;;;;5019813;28;20055;-63
2024/01/13 00:20:34;;;;;;;69.70;28.08;;;-4.90;99.90;;;;;;5014096;28;20121;-62
2024/01/13 00:23:01;;;;;;;68.65;26.83;;;-4.90;99.90;;;;;;5027219;28;20030;-62
2024/01/13 00:25:33;;;;;;;73.40;30.58;;;-5.00;99.90;;;;;;5024609;28;20124;-65
2024/01/13 00:28:06;;;;;;;67.30;28.97;;;-5.00;99.90;;;;;;5011885;28;20514;-65
2024/01/13 00:30:38;;;;;;;69.10;28.05;;;-5.00;99.90;;;;;;5013198;28;20081;-65
2024/01/13 00:33:09;;;;;;;72.03;30.03;;;-5.10;99.90;;;;;;5015195;28;20050;-65
2024/01/13 00:35:41;;;;;;;78.15;30.42;;;-5.00;99.90;;;;;;5016027;28;20045;-64
2024/01/13 00:38:13;;;;;;;78.30;30.97;;;-5.10;99.90;;;;;;5020471;28;20081;-65
2024/01/13 00:40:39;;;;;;;91.13;33.03;;;-5.10;99.90;;;;;;5027806;28;20060;-65
2024/01/13 00:43:11;;;;;;;89.67;32.43;;;-5.10;99.90;;;;;;5021391;28;20046;-64
2024/01/13 00:45:43;;;;;;;82.13;33.57;;;-5.10;99.90;;;;;;5017693;28;20406;-65
2024/01/13 00:48:11;;;;;;;91.78;34.55;;;-5.10;99.90;;;;;;5015913;28;20143;-65
2024/01/13 00:50:38;;;;;;;101.53;35.57;;;-5.10;99.90;;;;;;5013900;28;20121;-64
2024/01/13 00:53:10;;;;;;;100.35;37.85;;;-5.10;99.90;;;;;;5011764;28;20037;-65
2024/01/13 00:55:42;;;;;;;93.18;35.10;;;-5.10;99.90;;;;;;5011674;28;20038;-65
2024/01/13 00:58:16;;;;;;;97.17;32.53;;;-5.10;99.90;;;;;;5024414;28;20072;-65
2024/01/13 01:00:47;;;;;;;99.57;35.53;;;-5.10;99.90;;;;;;5028661;28;20050;-65
2024/01/13 01:03:19;;;;;;;90.57;33.78;;;-5.10;99.90;;;;;;5036045;28;20042;-65
2024/01/13 01:05:48;;;;;;;89.70;32.67;;;-5.00;99.90;;;;;;5025905;28;20046;-65
2024/01/13 01:08:20;;;;;;;92.40;35.37;;;-5.00;99.90;;;;;;5034324;28;20057;-65
2024/01/13 01:10:53;;;;;;;87.63;34.60;;;-5.10;99.90;;;;;;5018049;28;20124;-65
2024/01/13 01:13:20;;;;;;;96.40;35.97;;;-5.10;99.90;;;;;;5026814;28;20477;-65
2024/01/13 01:15:46;;;;;;;91.37;33.93;;;-5.10;99.90;;;;;;5040425;28;20079;-65
2024/01/13 01:18:18;;;;;;;88.78;32.95;;;-5.10;99.90;;;;;;5019043;28;20056;-65
2024/01/13 01:20:50;;;;;;;89.77;33.77;;;-5.20;99.90;;;;;;5007360;28;20060;-65
2024/01/13 01:23:17;;;;;;;85.53;33.00;;;-5.10;99.90;;;;;;5027965;28;20045;-65
2024/01/13 01:25:48;;;;;;;103.28;35.22;;;-5.00;99.90;;;;;;5016534;28;20076;-65
2024/01/13 01:28:22;;;;;;;104.22;35.95;;;-5.00;99.90;;;;;;5048814;28;20385;-64
2024/01/13 01:30:54;;;;;;;101.22;37.60;;;-5.00;99.90;;;;;;5032410;28;20050;-65
2024/01/13 01:33:26;;;;;;;91.67;36.80;;;-5.00;99.90;;;;;;5020520;28;20051;-64
2024/01/13 01:35:57;;;;;;;85.43;33.73;;;-5.00;99.90;;;;;;5020042;28;20121;-65
2024/01/13 01:38:29;;;;;;;89.03;34.53;;;-5.00;99.90;;;;;;5026276;28;20048;-65
2024/01/13 01:41:02;;;;;;;99.10;35.30;;;-5.10;99.90;;;;;;5024859;28;20104;-65
2024/01/13 01:43:34;;;;;;;95.57;35.80;;;-5.00;99.90;;;;;;5012554;28;20053;-65
2024/01/13 01:46:11;;;;;;;87.73;33.67;;;-5.00;99.90;;;;;;5009931;28;20375;-65
2024/01/13 01:48:44;;;;;;;87.33;33.03;;;-5.00;99.90;;;;;;5026540;28;20049;-65
2024/01/13 01:51:14;;;;;;;82.88;32.25;;;-5.00;99.90;;;;;;5026846;28;20049;-65
2024/01/13 01:53:47;;;;;;;118.10;36.43;;;-4.90;99.90;;;;;;5029535;28;20149;-65
2024/01/13 01:56:26;;;;;;;102.50;34.72;;;-5.00;99.90;;;;;;5026289;28;20131;-65
2024/01/13 01:58:59;;;;;;;88.07;34.83;;;-5.00;99.90;;;;;;5033242;28;20041;-65
2024/01/13 02:01:31;;;;;;;91.37;33.13;;;-4.90;99.90;;;;;;5019682;28;20143;-65
2024/01/13 02:04:04;;;;;;;90.63;35.33;;;-4.90;99.90;;;;;;5016708;28;20057;-65
2024/01/13 02:06:35;;;;;;;94.32;34.88;;;-4.90;99.90;;;;;;5033223;28;20045;-64
2024/01/13 02:09:07;;;;;;;93.20;35.33;;;-5.00;99.90;;;;;;5016833;28;20070;-65
2024/01/13 02:11:39;;;;;;;98.38;36.00;;;-5.00;99.90;;;;;;5029582;28;20050;-65
2024/01/13 02:14:06;;;;;;;97.18;38.25;;;-5.00;99.90;;;;;;5031199;28;20045;-65
2024/01/13 02:16:33;;;;;;;97.07;35.47;;;-5.00;99.90;;;;;;5031365;28;20824;-65
2024/01/13 02:19:00;;;;;;;93.78;35.85;;;-5.00;99.90;;;;;;5031209;28;20045;-65
2024/01/13 02:21:35;;;;;;;97.93;37.23;;;-5.00;99.90;;;;;;5024271;28;20136;-65
2024/01/13 02:24:08;;;;;;;96.05;33.70;;;-5.00;99.90;;;;;;5022668;28;20081;-65
2024/01/13 02:26:39;;;;;;;87.37;33.87;;;-5.00;99.90;;;;;;5022907;28;20437;-65
2024/01/13 02:29:11;;;;;;;88.97;34.30;;;-5.00;99.90;;;;;;5023386;28;20038;-65
2024/01/13 02:31:43;;;;;;;86.55;34.40;;;-5.00;99.90;;;;;;5019141;28;20086;-65
2024/01/13 02:34:15;;;;;;;82.65;33.13;;;-5.00;99.90;;;;;;5025869;28;20042;-65
2024/01/13 02:36:47;;;;;;;83.07;32.78;;;-5.00;99.90;;;;;;5015157;28;20045;-65
2024/01/13 02:39:19;;;;;;;86.30;33.83;;;-4.90;99.90;;;;;;5027436;28;20258;-64
2024/01/13 02:41:51;;;;;;;86.78;33.97;;;-5.00;99.90;;;;;;5014547;28;20578;-65
2024/01/13 02:44:24;;;;;;;90.13;32.70;;;-4.90;99.90;;;;;;5024167;28;20053;-65
2024/01/13 02:46:51;;;;;;;77.70;31.73;;;-4.90;99.90;;;;;;5023355;28;20123;-65
2024/01/13 02:49:23;;;;;;;87.45;32.97;;;-4.90;99.90;;;;;;5034622;28;20041;-65
2024/01/13 02:51:55;;;;;;;86.97;33.70;;;-5.00;99.90;;;;;;5028165;28;20034;-65
2024/01/13 02:54:22;;;;;;;91.27;34.00;;;-4.90;99.90;;;;;;5029896;28;20049;-65
2024/01/13 02:56:48;;;;;;;85.20;31.90;;;-4.90;99.90;;;;;;5024870;28;20148;-65
2024/01/13 02:59:20;;;;;;;90.50;33.13;;;-4.90;99.90;;;;;;5038833;28;20045;-65
2024/01/13 03:01:52;;;;;;;86.93;31.43;;;-4.90;99.90;;;;;;5027532;28;20052;-65
2024/01/13 03:04:19;;;;;;;93.10;35.57;;;-4.90;99.90;;;;;;5013735;28;20042;-65
2024/01/13 03:06:51;;;;;;;71.13;26.30;;;-4.90;99.90;;;;;;5011808;28;20045;-65
2024/01/13 03:09:23;;;;;;;83.20;35.13;;;-5.00;99.90;;;;;;5019492;28;20055;-65
2024/01/13 03:11:55;;;;;;;100.45;35.92;;;-5.10;99.90;;;;;;5027814;28;20069;-65
2024/01/13 03:14:27;;;;;;;87.03;33.40;;;-5.10;99.90;;;;;;5039951;28;20062;-65
2024/01/13 03:16:59;;;;;;;93.47;35.40;;;-5.20;99.90;;;;;;5019050;28;20074;-65
2024/01/13 03:19:30;;;;;;;86.85;33.72;;;-5.20;99.90;;;;;;5022360;28;20045;-65
2024/01/13 03:22:02;;;;;;;93.43;33.47;;;-5.20;99.90;;;;;;5029483;28;20045;-65
2024/01/13 03:24:34;;;;;;;83.97;32.45;;;-5.20;99.90;;;;;;5011734;28;20042;-65
2024/01/13 03:27:06;;;;;;;75.90;29.20;;;-5.20;99.90;;;;;;5012316;28;20049;-64
2024/01/13 03:29:38;;;;;;;80.53;30.13;;;-5.30;99.90;;;;;;5016739;28;20052;-65
2024/01/13 03:32:10;;;;;;;86.03;32.03;;;-5.30;99.90;;;;;;5028172;28;20585;-64
2024/01/13 03:34:36;;;;;;;95.40;32.40;;;-5.30;99.90;;;;;;5028575;28;20048;-65
2024/01/13 03:37:08;;;;;;;87.75;32.08;;;-5.40;99.90;;;;;;5027064;28;20069;-65
2024/01/13 03:39:40;;;;;;;86.57;33.75;;;-5.30;99.90;;;;;;5029010;28;20065;-64
2024/01/13 03:42:12;;;;;;;80.40;31.77;;;-5.30;99.90;;;;;;5023330;28;20040;-65
2024/01/13 03:44:43;;;;;;;91.15;33.70;;;-5.40;99.90;;;;;;5020778;28;20053;-65
2024/01/13 03:47:10;;;;;;;80.20;30.55;;;-5.30;99.90;;;;;;5037755;28;20040;-65
2024/01/13 03:49:37;;;;;;;88.80;31.88;;;-5.30;99.90;;;;;;5033227;28;20096;-65
2024/01/13 03:52:09;;;;;;;92.32;32.15;;;-5.30;99.90;;;;;;5016520;28;20086;-65
2024/01/13 03:54:41;;;;;;;76.05;30.73;;;-5.30;99.90;;;;;;5014446;28;20046;-65
2024/01/13 03:57:13;;;;;;;82.13;33.08;;;-5.30;99.90;;;;;;5016644;28;20046;-65
2024/01/13 03:59:40;;;;;;;84.75;32.13;;;-5.30;99.90;;;;;;5019358;28;20044;-65
2024/01/13 04:02:07;;;;;;;79.03;30.75;;;-5.30;99.90;;;;;;5014156;28;20037;-65
2024/01/13 04:04:34;;;;;;;75.47;29.70;;;-5.30;99.90;;;;;;5017290;28;20033;-65
2024/01/13 04:07:05;;;;;;;87.10;31.05;;;-5.30;99.90;;;;;;5024590;28;20038;-65
2024/01/13 04:09:39;;;;;;;80.47;30.08;;;-5.30;99.90;;;;;;5019854;28;20494;-65
2024/01/13 04:12:06;;;;;;;80.05;30.15;;;-5.30;99.90;;;;;;5021143;28;20180;-65
2024/01/13 04:14:33;;;;;;;76.03;29.08;;;-5.30;99.90;;;;;;5011398;28;20048;-65
2024/01/13 04:17:00;;;;;;;80.47;29.65;;;-5.40;99.90;;;;;;5011089;28;20467;-65
2024/01/13 04:19:32;;;;;;;89.45;33.28;;;-5.40;99.90;;;;;;5015141;28;20477;-65
2024/01/13 04:22:04;;;;;;;77.85;30.05;;;-5.40;99.90;;;;;;5013615;28;20049;-65
2024/01/13 04:24:36;;;;;;;94.43;32.53;;;-5.40;99.90;;;;;;5011716;28;20417;-65
2024/01/13 04:27:08;;;;;;;90.05;33.70;;;-5.40;99.90;;;;;;5027244;28;20046;-65
2024/01/13 04:29:40;;;;;;;93.72;32.80;;;-5.30;99.90;;;;;;5014904;28;20049;-65
2024/01/13 04:32:11;;;;;;;92.32;32.53;;;-5.30;99.90;;;;;;5028249;28;20490;-65
2024/01/13 04:34:43;;;;;;;86.45;32.72;;;-5.20;99.90;;;;;;5028482;28;20042;-70
2024/01/13 04:37:15;;;;;;;79.15;31.38;;;-5.20;99.90;;;;;;5021221;28;20426;-65
2024/01/13 04:39:47;;;;;;;91.55;32.30;;;-5.20;99.90;;;;;;5020722;28;20131;-65
2024/01/13 04:42:14;;;;;;;94.28;33.17;;;-5.10;99.90;;;;;;5024298;28;20139;-65
2024/01/13 04:44:41;;;;;;;96.88;38.95;;;-5.10;99.90;;;;;;5020622;28;20034;-65
2024/01/13 04:47:13;;;;;;;88.65;33.28;;;-5.00;99.90;;;;;;5041832;28;20037;-64
2024/01/13 04:49:40;;;;;;;87.25;32.45;;;-5.00;99.90;;;;;;5011415;28;20052;-65
2024/01/13 04:52:12;;;;;;;80.03;31.67;;;-4.90;99.90;;;;;;5009944;28;20104;-65
2024/01/13 04:54:44;;;;;;;80.20;32.30;;;-4.90;99.90;;;;;;5024296;28;20525;-65
2024/01/13 04:57:16;;;;;;;91.28;32.03;;;-4.90;99.90;;;;;;5026555;28;20045;-65
2024/01/13 04:59:47;;;;;;;89.88;32.65;;;-4.90;99.90;;;;;;5026608;28;20060;-64
2024/01/13 05:02:14;;;;;;;70.22;26.88;;;-4.80;99.90;;;;;;5019331;28;20104;-65
2024/01/13 05:04:41;;;;;;;70.68;26.05;;;-4.90;99.90;;;;;;5018890;28;20041;-65
2024/01/13 05:07:15;;;;;;;78.60;28.95;;;-4.90;99.90;;;;;;5018267;28;20041;-65
2024/01/13 05:09:49;;;;;;;77.40;28.60;;;-4.90;99.90;;;;;;5026646;28;20046;-66
2024/01/13 05:12:16;;;;;;;69.40;26.50;;;-5.10;99.90;;;;;;5029492;28;20037;-64
2024/01/13 05:14:48;;;;;;;77.93;27.60;;;-5.10;99.90;;;;;;5025298;28;20108;-65
2024/01/13 05:17:19;;;;;;;90.32;30.83;;;-5.30;99.90;;;;;;5011688;28;20046;-65
2024/01/13 05:19:51;;;;;;;77.88;28.25;;;-5.20;99.90;;;;;;5028617;28;20060;-65
2024/01/13 05:22:24;;;;;;;85.32;29.38;;;-5.20;99.90;;;;;;5012976;28;20145;-65
2024/01/13 05:24:56;;;;;;;88.85;30.02;;;-5.20;99.90;;;;;;5017304;28;20080;-65
2024/01/13 05:27:28;;;;;;;75.70;26.35;;;-5.20;99.90;;;;;;5037004;28;20434;-65
2024/01/13 05:29:54;;;;;;;82.85;31.05;;;-5.20;99.90;;;;;;5034261;28;20096;-65
2024/01/13 05:32:27;;;;;;;87.32;28.77;;;-5.20;99.90;;;;;;5018437;28;20046;-65
2024/01/13 05:34:58;;;;;;;80.95;30.45;;;-5.20;99.90;;;;;;5035519;28;20057;-65
2024/01/13 05:37:30;;;;;;;91.38;30.25;;;-5.20;99.90;;;;;;5041490;28;20033;-65
2024/01/13 05:40:04;;;;;;;80.20;27.45;;;-5.20;99.90;;;;;;5017450;28;20042;-64
2024/01/13 05:42:37;;;;;;;85.45;29.38;;;-5.20;99.90;;;;;;5018192;28;20674;-65
2024/01/13 05:45:04;;;;;;;95.93;33.28;;;-5.10;99.90;;;;;;5043687;28;20046;-65
2024/01/13 05:47:38;;;;;;;81.63;31.13;;;-5.10;99.90;;;;;;5027181;28;20437;-65
2024/01/13 05:50:09;;;;;;;90.57;31.83;;;-5.10;99.90;;;;;;5037562;28;20038;-65
2024/01/13 05:52:41;;;;;;;82.00;30.33;;;-5.00;99.90;;;;;;5023193;28;20616;-65
2024/01/13 05:55:13;;;;;;;81.80;28.63;;;-5.00;99.90;;;;;;5027272;28;20046;-65
2024/01/13 05:57:40;;;;;;;88.43;30.88;;;-5.00;99.90;;;;;;5034386;28;20045;-65
2024/01/13 06:00:12;;;;;;;86.65;29.45;;;-5.10;99.90;;;;;;5021719;28;20047;-65
2024/01/13 06:02:44;;;;;;;75.10;28.90;;;-5.20;99.90;;;;;;5010033;28;20141;-65
2024/01/13 06:05:11;;;;;;;70.93;25.73;;;-5.20;99.90;;;;;;5009893;28;20421;-65
2024/01/13 06:07:43;;;;;;;79.85;27.73;;;-5.30;99.90;;;;;;5011630;28;20042;-65
2024/01/13 06:10:17;;;;;;;69.00;27.35;;;-5.30;99.90;;;;;;5010422;28;20872;-65
2024/01/13 06:12:49;;;;;;;82.65;31.92;;;-5.30;99.90;;;;;;5012270;28;20096;-65
2024/01/13 06:15:20;;;;;;;70.95;26.25;;;-5.30;99.90;;;;;;5015467;28;20046;-64
2024/01/13 06:17:48;;;;;;;81.60;28.57;;;-5.30;99.90;;;;;;5038959;28;20049;-65
2024/01/13 06:20:20;;;;;;;79.27;29.83;;;-5.30;99.90;;;;;;5023574;28;20460;-65
2024/01/13 06:22:52;;;;;;;80.43;30.20;;;-5.30;99.90;;;;;;5035184;28;20065;-65
2024/01/13 06:25:24;;;;;;;73.00;28.52;;;-5.30;99.90;;;;;;5020063;28;20030;-65
2024/01/13 06:27:56;;;;;;;77.63;28.83;;;-5.30;99.90;;;;;;5021812;28;20047;-65
2024/01/13 06:30:28;;;;;;;78.50;29.90;;;-5.20;99.90;;;;;;5025347;28;20069;-65
2024/01/13 06:33:02;;;;;;;90.47;29.25;;;-5.30;99.90;;;;;;5018059;28;20124;-65
2024/01/13 06:35:34;;;;;;;88.88;32.80;;;-5.20;99.90;;;;;;5025633;28;20053;-65
2024/01/13 06:38:05;;;;;;;81.43;30.90;;;-5.20;99.90;;;;;;5028556;28;20049;-65
2024/01/13 06:40:32;;;;;;;97.68;32.75;;;-5.10;99.90;;;;;;5025843;28;20402;-65
2024/01/13 06:43:06;;;;;;;89.68;29.95;;;-5.10;99.90;;;;;;5034341;28;20060;-65
2024/01/13 06:45:38;;;;;;;68.97;29.90;;;-5.00;99.90;;;;;;5020607;28;20045;-65
2024/01/13 06:48:05;;;;;;;86.75;31.17;;;-5.10;99.90;;;;;;5027074;28;20045;-65
2024/01/13 06:50:37;;;;;;;85.35;32.92;;;-5.10;99.90;;;;;;5021587;28;20520;-65
2024/01/13 06:53:09;;;;;;;76.30;29.83;;;-5.10;99.90;;;;;;5028148;28;20034;-65
2024/01/13 06:55:43;;;;;;;79.13;29.27;;;-5.10;99.90;;;;;;5028975;28;20048;-65
2024/01/13 06:58:15;;;;;;;70.70;25.45;;;-5.10;99.90;;;;;;5028272;28;20062;-65
2024/01/13 07:00:42;;;;;;;61.65;24.88;;;-5.10;99.90;;;;;;5014571;28;20116;-65
2024/01/13 07:03:13;;;;;;;65.75;25.25;;;-5.10;99.90;;;;;;5025438;28;20046;-65
2024/01/13 07:05:45;;;;;;;61.22;24.80;;;-5.10;99.90;;;;;;5016421;28;20502;-65
2024/01/13 07:08:12;;;;;;;64.72;25.15;;;-5.20;99.90;;;;;;5017030;28;20033;-65
2024/01/13 07:10:44;;;;;;;68.97;28.15;;;-5.10;99.90;;;;;;5017891;28;20049;-65
2024/01/13 07:13:17;;;;;;;64.60;28.25;;;-5.10;99.90;;;;;;5022397;28;20517;-65
2024/01/13 07:15:49;;;;;;;75.22;27.27;;;-5.20;99.90;;;;;;5014679;28;20077;-65
2024/01/13 07:18:21;;;;;;;64.13;26.00;;;-5.30;99.90;;;;;;5022915;28;20049;-65
2024/01/13 07:20:55;;;;;;;70.35;27.52;;;-5.30;99.90;;;;;;5017899;28;20421;-65
2024/01/13 07:23:28;;;;;;;74.60;29.50;;;-5.40;99.90;;;;;;5029859;28;20045;-65
2024/01/13 07:26:01;;;;;;;64.97;27.90;;;-5.40;99.90;;;;;;5023496;28;20092;-65
2024/01/13 07:28:33;;;;;;;67.97;28.80;;;-5.50;99.90;;;;;;5017428;28;20506;-65
2024/01/13 07:31:06;;;;;;;64.53;24.92;;;-5.60;99.90;;;;;;5025417;28;20480;-65
2024/01/13 07:33:38;;;;;;;63.00;26.67;;;-5.60;99.90;;;;;;5019437;28;20125;-65
2024/01/13 07:36:10;;;;;;;64.43;26.17;;;-5.70;99.90;;;;;;5012939;28;20081;-65
2024/01/13 07:38:42;;;;;;;62.35;26.52;;;-5.70;99.90;;;;;;5022834;28;20041;-65
2024/01/13 07:41:14;;;;;;;67.72;26.60;;;-5.70;99.90;;;;;;5039102;28;20048;-65
2024/01/13 07:43:46;;;;;;;62.85;25.98;;;-5.70;99.90;;;;;;5041764;28;20050;-66
2024/01/13 07:46:18;;;;;;;72.05;26.52;;;-5.70;99.90;;;;;;5028156;28;20041;-65
2024/01/13 07:48:50;;;;;;;68.72;27.55;;;-5.70;99.90;;;;;;5026820;28;20121;-65
2024/01/13 07:51:22;;;;;;;72.70;25.30;;;-5.70;99.90;;;;;;5025805;28;20045;-65
2024/01/13 07:53:53;;;;;;;60.10;25.45;;;-5.70;99.90;;;;;;5025459;28;20494;-65
2024/01/13 07:56:21;;;;;;;53.38;21.42;;;-5.80;99.90;;;;;;5024089;28;20069;-65
2024/01/13 07:58:52;;;;;;;51.92;22.75;;;-5.90;99.90;;;;;;5021434;28;20045;-65
2024/01/13 08:01:25;;;;;;;55.10;22.73;;;-6.00;99.90;;;;;;5031557;28;20045;-65
2024/01/13 08:03:52;;;;;;;49.83;21.93;;;-6.10;99.90;;;;;;5028115;28;20038;-65
2024/01/13 08:06:19;;;;;;;51.93;20.63;;;-6.20;99.90;;;;;;5029735;28;20037;-65
2024/01/13 08:08:50;;;;;;;49.77;21.20;;;-6.20;99.90;;;;;;5029082;28;20049;-65
2024/01/13 08:11:17;;;;;;;52.07;21.03;;;-6.30;99.90;;;;;;5030111;28;20501;-65
2024/01/13 08:13:49;;;;;;;44.97;17.90;;;-6.40;99.90;;;;;;5026984;28;20038;-65
2024/01/13 08:16:21;;;;;;;43.83;19.17;;;-6.40;99.90;;;;;;5026223;28;20042;-65
2024/01/13 08:18:53;;;;;;;44.63;20.17;;;-6.50;99.90;;;;;;5025824;28;20045;-67
2024/01/13 08:21:26;;;;;;;46.23;19.10;;;-6.50;99.90;;;;;;5037884;28;20046;-67
2024/01/13 08:23:52;;;;;;;47.77;19.67;;;-6.50;99.90;;;;;;5020540;28;20041;-67
2024/01/13 08:26:26;;;;;;;48.03;20.07;;;-6.50;99.90;;;;;;5023705;28;20136;-67
2024/01/13 08:28:52;;;;;;;53.53;19.37;;;-6.40;99.90;;;;;;5029683;28;20069;-67
2024/01/13 08:31:24;;;;;;;48.07;16.93;;;-6.40;99.90;;;;;;5027996;28;20041;-67
2024/01/13 08:33:57;;;;;;;47.77;18.13;;;-6.40;99.90;;;;;;5026409;28;20156;-67
2024/01/13 08:36:25;;;;;;;39.73;16.90;;;-6.40;99.90;;;;;;5038864;28;20049;-71
2024/01/13 08:38:57;;;;;;;34.67;15.27;;;-6.50;99.90;;;;;;5031728;28;20061;-67
2024/01/13 08:41:31;;;;;;;40.00;16.17;;;-6.60;99.90;;;;;;5013103;28;20053;-65
2024/01/13 08:44:06;;;;;;;35.70;15.73;;;-6.60;99.90;;;;;;5041654;28;20045;-66
2024/01/13 08:46:33;;;;;;;44.93;16.37;;;-6.50;99.90;;;;;;5015899;28;20049;-66
2024/01/13 08:49:05;;;;;;;29.07;12.27;;;-6.50;99.90;;;;;;5023167;28;20418;-66
2024/01/13 08:51:37;;;;;;;32.67;14.13;;;-6.40;99.90;;;;;;5018396;28;20034;-66
2024/01/13 08:54:09;;;;;;;33.70;13.17;;;-6.40;99.90;;;;;;5025792;28;20034;-66
2024/01/13 08:56:40;;;;;;;35.50;14.27;;;-6.30;99.90;;;;;;5024532;28;20058;-66
2024/01/13 08:59:11;;;;;;;35.90;13.93;;;-6.30;99.90;;;;;;5029326;28;20069;-66
2024/01/13 09:01:42;;;;;;;38.53;14.57;;;-6.20;99.90;;;;;;5026454;28;20044;-66
2024/01/13 09:04:10;;;;;;;38.90;14.47;;;-6.20;99.90;;;;;;5023647;28;20045;-70
2024/01/13 09:06:37;;;;;;;35.30;14.10;;;-6.20;99.90;;;;;;5043214;28;20041;-66
2024/01/13 09:09:09;;;;;;;37.03;13.83;;;-6.20;99.90;;;;;;5020166;28;20052;-66
2024/01/13 09:11:38;;;;;;;35.37;14.60;;;-6.30;99.90;;;;;;5029021;28;20128;-66
2024/01/13 09:14:10;;;;;;;;;;;-6.20;99.90;;;;;;5026093;28;20045;-66
2024/01/13 09:16:43;;;;;;;41.00;15.00;;;-6.20;99.90;;;;;;5026011;28;19928;-66
2024/01/13 09:19:11;;;;;;;35.57;14.67;;;-6.20;99.90;;;;;;5028700;28;20069;-66
2024/01/13 09:21:39;;;;;;;34.53;14.57;;;-6.10;99.90;;;;;;5039474;28;20080;-66
2024/01/13 09:24:11;;;;;;;32.27;14.93;;;-6.20;99.90;;;;;;5038890;28;20600;-66
2024/01/13 09:26:44;;;;;;;38.37;15.80;;;-6.20;99.90;;;;;;5025745;28;20054;-66
2024/01/13 09:29:16;;;;;;;40.63;14.98;;;-6.10;99.90;;;;;;5027017;28;20510;-65
2024/01/13 09:31:43;;;;;;;36.07;14.63;;;-6.10;99.90;;;;;;5023525;28;20410;-66
2024/01/13 09:34:15;;;;;;;35.93;16.30;;;-6.10;99.90;;;;;;5021740;28;20042;-66
2024/01/13 09:36:47;;;;;;;37.87;17.37;;;-6.10;99.90;;;;;;5020812;28;20072;-65
2024/01/13 09:39:20;;;;;;;52.83;20.67;;;-6.00;99.90;;;;;;5024870;28;20048;-66
2024/01/13 09:41:48;;;;;;;72.73;26.97;;;-6.00;99.90;;;;;;5023722;28;20046;-66
2024/01/13 09:44:28;;;;;;;103.93;40.67;;;-5.90;99.90;;;;;;5027596;28;20041;-66
2024/01/13 09:47:00;;;;;;;49.40;18.33;;;-5.90;99.90;;;;;;5039860;28;20057;-66
2024/01/13 09:49:33;;;;;;;30.02;11.73;;;-5.80;99.90;;;;;;5039545;28;20128;-67
2024/01/13 09:52:06;;;;;;;35.60;14.70;;;-5.80;99.90;;;;;;5027643;28;20041;-66
2024/01/13 09:54:33;;;;;;;33.37;14.20;;;-5.80;99.90;;;;;;5023404;28;20048;-66
2024/01/13 09:57:05;;;;;;;40.08;17.15;;;-5.80;99.90;;;;;;5038866;28;20421;-66
2024/01/13 09:59:40;;;;;;;37.20;15.73;;;-5.80;99.90;;;;;;5024167;28;20045;-65
2024/01/13 10:02:15;;;;;;;37.03;15.17;;;-5.80;99.90;;;;;;5026367;28;20107;-66
2024/01/13 10:04:47;;;;;;;38.60;16.37;;;-5.80;99.90;;;;;;5036773;28;20405;-68
2024/01/13 10:07:20;;;;;;;39.10;15.37;;;-5.70;99.90;;;;;;5016421;28;20049;-65
2024/01/13 10:09:52;;;;;;;28.00;12.05;;;-5.70;99.90;;;;;;5020236;28;20132;-67
2024/01/13 10:12:19;;;;;;;42.00;15.40;;;-5.70;99.90;;;;;;5027147;28;20057;-66
2024/01/13 10:14:46;;;;;;;34.75;15.23;;;-5.60;99.90;;;;;;5022133;28;20505;-67
2024/01/13 10:17:18;;;;;;;37.87;14.73;;;-5.60;99.90;;;;;;5021175;28;20053;-67
2024/01/13 10:19:45;;;;;;;42.80;15.38;;;-5.60;99.90;;;;;;5022496;28;20029;-68
2024/01/13 10:22:18;;;;;;;42.00;17.00;;;-5.60;99.90;;;;;;5024451;28;20045;-67
2024/01/13 10:24:45;;;;;;;40.47;16.47;;;-5.50;99.90;;;;;;5022183;28;20037;-66
2024/01/13 10:27:16;;;;;;;48.30;18.70;;;-5.50;99.90;;;;;;5023967;28;20404;-66
2024/01/13 10:29:49;;;;;;;45.53;18.30;;;-5.50;99.90;;;;;;5014141;28;20038;-66
2024/01/13 10:32:16;;;;;;;40.08;16.35;;;-5.40;99.90;;;;;;5024211;28;20037;-66
2024/01/13 10:34:47;;;;;;;43.83;18.00;;;-5.40;99.90;;;;;;5020634;28;20127;-66
2024/01/13 10:37:19;;;;;;;49.20;19.77;;;-5.30;99.90;;;;;;5016586;28;20114;-68
2024/01/13 10:39:46;;;;;;;41.65;16.13;;;-5.20;99.90;;;;;;5020859;28;20056;-66
2024/01/13 10:42:16;;;;;;;41.00;17.75;;;-5.10;99.90;;;;;;5026862;28;20046;-66
2024/01/13 10:44:48;;;;;;;45.25;18.63;;;-5.10;99.90;;;;;;5028278;28;20474;-66
2024/01/13 10:47:25;;;;;;;38.97;17.60;;;-5.20;99.90;;;;;;5022889;28;20045;-66
2024/01/13 10:49:58;;;;;;;50.03;19.83;;;-5.20;99.90;;;;;;5025870;28;20046;-66
2024/01/13 10:52:32;;;;;;;43.15;18.75;;;-5.10;99.90;;;;;;5025671;28;20413;-66
2024/01/13 10:55:06;;;;;;;40.20;16.75;;;-5.10;99.90;;;;;;5027825;28;20554;-66
2024/01/13 10:57:38;;;;;;;;;;;-5.20;99.90;;;;;;5019382;28;20591;-67
2024/01/13 11:00:08;;;;;;;43.45;15.35;;;-5.20;99.90;;;;;;5025761;28;19931;-67
2024/01/13 11:02:43;;;;;;;39.10;15.80;;;-5.30;99.90;;;;;;5024148;28;20041;-66
2024/01/13 11:05:15;;;;;;;45.53;17.17;;;-5.20;99.90;;;;;;5043160;28;20037;-66
2024/01/13 11:07:47;;;;;;;43.38;19.00;;;-5.30;99.90;;;;;;5026309;28;20045;-66
2024/01/13 11:10:31;;;;;;;44.13;16.90;;;-5.20;99.90;;;;;;5024234;28;20166;-66
2024/01/13 11:13:25;;;;;;;42.45;16.25;;;-5.10;99.90;;;;;;5038653;28;20410;-66
2024/01/13 11:16:07;;;;;;;33.80;13.48;;;-5.10;99.90;;;;;;5019825;28;20125;-66
2024/01/13 11:18:46;;;;;;;44.83;18.08;;;-5.00;99.90;;;;;;5026388;28;20041;-66
2024/01/13 11:21:19;;;;;;;51.50;20.70;;;-4.90;99.90;;;;;;5016940;28;20177;-66
2024/01/13 11:23:51;;;;;;;46.22;15.88;;;-4.80;99.90;;;;;;5024730;28;20037;-66
2024/01/13 11:26:36;;;;;;;44.70;16.67;;;-4.80;99.90;;;;;;5019032;28;20073;-66
2024/01/13 11:29:21;;;;;;;43.08;16.95;;;-4.70;99.90;;;;;;5025080;28;20126;-66
2024/01/13 11:31:55;;;;;;;46.35;16.38;;;-4.60;99.90;;;;;;5035949;28;20045;-66
2024/01/13 11:34:22;;;;;;;40.78;15.07;;;-4.50;99.90;;;;;;5024927;28;20041;-65
2024/01/13 11:36:56;;;;;;;45.53;15.88;;;-4.50;99.90;;;;;;5024606;28;20037;-66
2024/01/13 11:39:28;;;;;;;42.65;17.70;;;-4.50;99.90;;;;;;5049713;28;20048;-66
2024/01/13 11:42:03;;;;;;;44.60;17.95;;;-4.50;99.90;;;;;;5040145;28;20054;-66
2024/01/13 11:44:36;;;;;;;36.20;15.45;;;-4.40;99.90;;;;;;5023148;28;20067;-65
2024/01/13 11:47:07;;;;;;;39.40;14.73;;;-4.40;99.90;;;;;;5022432;28;20040;-65
2024/01/13 11:49:44;;;;;;;44.55;16.23;;;-4.40;99.90;;;;;;5019827;28;20045;-66
2024/01/13 11:52:32;;;;;;;43.28;15.90;;;-4.40;99.90;;;;;;5036241;28;20037;-66
2024/01/13 11:55:04;;;;;;;50.55;20.38;;;-4.40;99.90;;;;;;5035707;28;20081;-66
2024/01/13 11:57:39;;;;;;;37.43;15.17;;;-4.30;99.90;;;;;;5026703;28;20498;-66
2024/01/13 12:00:12;;;;;;;43.90;16.67;;;-4.30;99.90;;;;;;5021494;28;20148;-65
2024/01/13 12:02:39;;;;;;;34.00;16.00;;;-4.20;99.90;;;;;;5024633;28;20040;-65
2024/01/13 12:05:10;;;;;;;41.17;17.13;;;-4.10;99.90;;;;;;5021205;28;20025;-65
2024/01/13 12:07:42;;;;;;;37.83;14.32;;;-4.10;99.90;;;;;;5021265;28;20037;-65
2024/01/13 12:10:14;;;;;;;37.60;15.85;;;-4.10;99.90;;;;;;5037642;28;20046;-66
2024/01/13 12:12:41;;;;;;;39.20;14.75;;;-4.00;99.90;;;;;;5020581;28;20045;-65
2024/01/13 12:15:19;;;;;;;46.72;17.50;;;-4.00;99.90;;;;;;5026514;28;20597;-65
2024/01/13 12:17:52;;;;;;;39.67;16.90;;;-4.00;99.90;;;;;;5023245;28;20056;-66
2024/01/13 12:20:24;;;;;;;45.42;17.77;;;-4.00;99.90;;;;;;5025530;28;20413;-66
2024/01/13 12:22:56;;;;;;;49.42;20.90;;;-3.90;99.90;;;;;;5027436;28;20053;-65
2024/01/13 12:25:30;;;;;;;46.00;17.25;;;-3.90;99.90;;;;;;5039410;28;20045;-66
2024/01/13 12:28:02;;;;;;;36.45;15.32;;;-3.90;99.90;;;;;;5027854;28;20037;-66
2024/01/13 12:30:38;;;;;;;37.20;15.55;;;-3.90;99.90;;;;;;5025909;28;20115;-66
2024/01/13 12:33:12;;;;;;;38.50;15.02;;;-3.80;99.90;;;;;;5019722;28;20091;-65
2024/01/13 12:35:38;;;;;;;45.90;17.70;;;-3.90;99.90;;;;;;5027623;28;20042;-66
2024/01/13 12:38:10;;;;;;;44.08;17.38;;;-3.90;99.90;;;;;;5020823;28;20477;-65
2024/01/13 12:40:38;;;;;;;46.55;17.88;;;-3.90;99.90;;;;;;5019787;28;20506;-66
2024/01/13 12:43:10;;;;;;;48.63;17.13;;;-3.90;99.90;;;;;;5021589;28;20053;-66
2024/01/13 12:45:38;;;;;;;40.45;15.88;;;-3.90;99.90;;;;;;5025325;28;20432;-65
2024/01/13 12:48:10;;;;;;;39.13;13.82;;;-3.90;99.90;;;;;;5020791;28;20041;-66